createdAt,value
2023-04-04T00:00:53.080Z,100347.78
2023-04-04T00:03:23.853Z,100345.92
2023-04-04T00:05:52.910Z,100344.77
2023-04-04T00:08:21.690Z,100350.33
2023-04-04T00:11:03.386Z,100348.28
2023-04-04T00:13:34.075Z,100348.43
2023-04-04T00:16:03.270Z,100349.24
2023-04-04T00:18:33.793Z,100349.70
2023-04-04T00:21:03.991Z,100346.29
2023-04-04T00:23:34.242Z,100340.03
2023-04-04T00:26:03.318Z,100344.94
2023-04-04T00:28:32.143Z,100345.95
2023-04-04T00:31:01.985Z,100336.47
2023-04-04T00:33:32.551Z,100341.38
2023-04-04T00:36:01.766Z,100344.09
2023-04-04T00:38:31.572Z,100347.09
2023-04-04T00:41:00.306Z,100355.57
2023-04-04T00:43:30.145Z,100353.88
2023-04-04T00:45:58.938Z,100353.17
2023-04-04T00:48:28.406Z,100350.23
2023-04-04T00:50:57.381Z,100348.45
2023-04-04T00:53:27.148Z,100350.86
2023-04-04T00:55:56.762Z,100347.84
2023-04-04T00:58:27.148Z,100349.70
2023-04-04T01:00:56.054Z,100341.03
2023-04-04T01:03:27.062Z,100341.87
2023-04-04T01:05:56.773Z,100343.23
2023-04-04T01:08:27.059Z,100343.89
2023-04-04T01:10:56.796Z,100347.45
2023-04-04T01:13:27.001Z,100342.23
2023-04-04T01:15:56.644Z,100344.78
2023-04-04T01:18:25.533Z,100344.44
2023-04-04T01:21:10.478Z,100352.41
2023-04-04T01:24:02.078Z,100349.55
2023-04-04T01:26:39.417Z,100351.25
2023-04-04T01:29:08.232Z,100351.09
2023-04-04T01:31:44.121Z,100354.96
2023-04-04T01:34:45.523Z,100354.96
2023-04-04T01:37:38.374Z,100351.41
2023-04-04T01:40:18.099Z,100363.59
2023-04-04T01:42:48.938Z,100367.80
2023-04-04T01:45:22.968Z,100376.23
2023-04-04T01:47:52.949Z,100372.17
2023-04-04T01:50:24.000Z,100374.17
2023-04-04T01:52:54.256Z,100383.66
2023-04-04T01:55:23.325Z,100384.66
2023-04-04T01:57:52.767Z,100391.42
2023-04-04T02:00:22.779Z,100390.49
2023-04-04T02:02:53.859Z,100385.08
2023-04-04T02:05:23.773Z,100386.93
2023-04-04T02:07:54.878Z,100384.88
2023-04-04T02:10:25.652Z,100373.39
2023-04-04T02:12:55.441Z,100378.81
2023-04-04T02:15:25.352Z,100376.45
2023-04-04T02:17:54.742Z,100364.27
2023-04-04T02:20:24.461Z,100365.77
2023-04-04T02:22:54.380Z,100367.28
2023-04-04T02:25:24.465Z,100366.42
2023-04-04T02:27:55.254Z,100372.50
2023-04-04T02:30:24.433Z,100363.92
2023-04-04T02:33:00.307Z,100362.92
2023-04-04T02:35:29.405Z,100353.44
2023-04-04T02:37:58.180Z,100349.53
2023-04-04T02:40:29.662Z,100342.96
2023-04-04T02:42:58.935Z,100344.70
2023-04-04T02:45:28.328Z,100338.28
2023-04-04T02:47:59.285Z,100338.55
2023-04-04T02:50:35.855Z,100336.14
2023-04-04T02:53:06.070Z,100336.65
2023-04-04T02:55:36.933Z,100332.89
2023-04-04T02:58:08.864Z,100335.25
2023-04-04T03:00:38.630Z,100336.45
2023-04-04T03:03:08.310Z,100340.51
2023-04-04T03:05:39.512Z,100347.78
2023-04-04T03:08:08.648Z,100364.22
2023-04-04T03:10:38.059Z,100364.72
2023-04-04T03:13:07.655Z,100364.52
2023-04-04T03:15:40.680Z,100362.82
2023-04-04T03:18:09.825Z,100374.70
2023-04-04T03:20:39.164Z,100371.49
2023-04-04T03:23:08.212Z,100379.46
2023-04-04T03:25:37.324Z,100378.76
2023-04-04T03:28:10.980Z,100382.13
2023-04-04T03:30:42.651Z,100379.22
2023-04-04T03:33:12.929Z,100387.69
2023-04-04T03:35:42.199Z,100382.42
2023-04-04T03:38:13.368Z,100383.92
2023-04-04T03:40:43.960Z,100393.91
2023-04-04T03:43:14.281Z,100386.13
2023-04-04T03:45:44.345Z,100383.08
2023-04-04T03:48:13.581Z,100382.02
2023-04-04T03:50:43.252Z,100382.52
2023-04-04T03:53:13.475Z,100379.27
2023-04-04T03:55:44.655Z,100377.36
2023-04-04T03:58:13.753Z,100381.52
2023-04-04T04:00:43.427Z,100382.52
2023-04-04T04:03:15.701Z,100378.95
2023-04-04T04:05:45.001Z,100383.52
2023-04-04T04:08:14.139Z,100383.87
2023-04-04T04:10:43.603Z,100385.22
2023-04-04T04:13:14.650Z,100387.78
2023-04-04T04:15:44.063Z,100389.84
2023-04-04T04:18:17.140Z,100391.69
2023-04-04T04:20:47.028Z,100396.09
2023-04-04T04:23:15.710Z,100389.98
2023-04-04T04:25:48.011Z,100402.46
2023-04-04T04:28:20.416Z,100404.47
2023-04-04T04:30:51.159Z,100408.52
2023-04-04T04:33:24.292Z,100403.96
2023-04-04T04:36:02.152Z,100404.47
2023-04-04T04:38:33.384Z,100401.25
2023-04-04T04:41:03.284Z,100396.20
2023-04-04T04:43:36.906Z,100398.20
2023-04-04T04:46:08.113Z,100410.17
2023-04-04T04:48:40.432Z,100411.58
2023-04-04T04:51:14.622Z,100414.28
2023-04-04T04:53:45.367Z,100406.17
2023-04-04T04:56:14.745Z,100398.41
2023-04-04T04:58:47.073Z,100408.92
2023-04-04T05:01:18.673Z,100405.88
2023-04-04T05:03:48.688Z,100408.92
2023-04-04T05:06:24.785Z,100411.34
2023-04-04T05:08:55.717Z,100406.78
2023-04-04T05:11:37.918Z,100409.84
2023-04-04T05:14:08.145Z,100412.75
2023-04-04T05:16:40.665Z,100410.39
2023-04-04T05:19:09.689Z,100412.95
2023-04-04T05:21:43.225Z,100421.22
2023-04-04T05:24:16.909Z,100416.95
2023-04-04T05:26:47.080Z,100435.75
2023-04-04T05:29:16.173Z,100432.09
2023-04-04T05:31:48.817Z,100441.07
2023-04-04T05:34:19.882Z,100444.28
2023-04-04T05:36:50.507Z,100450.64
2023-04-04T05:39:21.026Z,100428.93
2023-04-04T05:41:51.676Z,100405.92
2023-04-04T05:44:20.760Z,100385.63
2023-04-04T05:46:49.450Z,100388.34
2023-04-04T05:49:18.780Z,100420.81
2023-04-04T05:51:52.958Z,100449.58
2023-04-04T05:54:21.641Z,100447.23
2023-04-04T05:56:51.768Z,100433.69
2023-04-04T05:59:23.471Z,100438.11
2023-04-04T06:01:54.186Z,100446.28
2023-04-04T06:04:23.502Z,100467.58
2023-04-04T06:06:54.633Z,100468.09
2023-04-04T06:09:23.757Z,100466.23
2023-04-04T06:11:52.795Z,100465.52
2023-04-04T06:14:23.433Z,100471.53
2023-04-04T06:16:53.041Z,100474.53
2023-04-04T06:19:22.992Z,100468.47
2023-04-04T06:21:53.124Z,100468.17
2023-04-04T06:24:22.473Z,100470.53
2023-04-04T06:26:53.059Z,100465.77
2023-04-04T06:29:26.198Z,100467.87
2023-04-04T06:31:58.389Z,100471.79
2023-04-04T06:34:31.038Z,100466.44
2023-04-04T06:37:02.203Z,100459.02
2023-04-04T06:39:34.573Z,100454.16
2023-04-04T06:42:07.606Z,100453.66
2023-04-04T06:44:39.665Z,100450.75
2023-04-04T06:47:09.198Z,100441.98
2023-04-04T06:49:39.455Z,100453.66
2023-04-04T06:52:09.874Z,100449.09
2023-04-04T06:54:39.324Z,100442.38
2023-04-04T06:57:08.453Z,100439.73
2023-04-04T06:59:37.151Z,100440.52
2023-04-04T07:02:06.120Z,100445.12
2023-04-04T07:04:35.212Z,100443.98
2023-04-04T07:07:04.301Z,100437.25
2023-04-04T07:09:33.468Z,100443.73
2023-04-04T07:12:02.300Z,100448.84
2023-04-04T07:14:31.278Z,100446.68
2023-04-04T07:17:05.539Z,100448.23
2023-04-04T07:19:33.893Z,100456.02
2023-04-04T07:22:03.451Z,100458.57
2023-04-04T07:24:34.198Z,100461.48
2023-04-04T07:27:03.798Z,100458.77
2023-04-04T07:29:33.036Z,100457.11
2023-04-04T07:32:02.862Z,100461.17
2023-04-04T07:34:32.733Z,100468.45
2023-04-04T07:37:01.756Z,100477.78
2023-04-04T07:39:31.231Z,100469.16
2023-04-04T07:42:07.198Z,100468.95
2023-04-04T07:44:37.517Z,100472.81
2023-04-04T07:47:09.992Z,100476.38
2023-04-04T07:49:36.679Z,100480.14
2023-04-04T07:52:06.107Z,100476.28
2023-04-04T07:54:35.638Z,100483.45
2023-04-04T07:57:06.393Z,100477.33
2023-04-04T07:59:37.756Z,100475.32
2023-04-04T08:02:07.245Z,100477.37
2023-04-04T08:04:37.017Z,100475.56
2023-04-04T08:07:05.846Z,100478.63
2023-04-04T08:09:36.654Z,100481.69
2023-04-04T08:12:06.629Z,100482.59
2023-04-04T08:14:36.618Z,100480.73
2023-04-04T08:17:07.081Z,100471.55
2023-04-04T08:19:36.643Z,100467.68
2023-04-04T08:22:06.485Z,100477.56
2023-04-04T08:24:37.716Z,100469.82
2023-04-04T08:27:07.229Z,100470.80
2023-04-04T08:29:38.292Z,100469.67
2023-04-04T08:32:07.516Z,100476.69
2023-04-04T08:34:37.474Z,100479.98
2023-04-04T08:37:08.437Z,100476.81
2023-04-04T08:39:37.714Z,100465.49
2023-04-04T08:42:07.548Z,100470.10
2023-04-04T08:44:38.261Z,100477.93
2023-04-04T08:47:09.452Z,100479.28
2023-04-04T08:49:43.495Z,100471.69
2023-04-04T08:52:12.787Z,100476.64
2023-04-04T08:54:43.097Z,100491.25
2023-04-04T08:57:12.693Z,100497.03
2023-04-04T08:59:42.392Z,100493.62
2023-04-04T09:02:19.720Z,100488.85
2023-04-04T09:04:58.278Z,100502.95
2023-04-04T09:07:20.053Z,100492.06
2023-04-04T09:09:49.843Z,100490.52
2023-04-04T09:12:19.471Z,100496.98
2023-04-04T09:14:51.709Z,100489.89
2023-04-04T09:17:21.722Z,100500.28
2023-04-04T09:19:50.369Z,100497.59
2023-04-04T09:22:19.545Z,100495.05
2023-04-04T09:24:50.359Z,100491.28
2023-04-04T09:27:22.754Z,100495.32
2023-04-04T09:29:53.040Z,100494.59
2023-04-04T09:32:25.119Z,100495.09
2023-04-04T09:34:54.124Z,100496.14
2023-04-04T09:37:23.213Z,100496.83
2023-04-04T09:39:52.514Z,100494.59
2023-04-04T09:42:21.656Z,100490.87
2023-04-04T09:44:56.104Z,100494.97
2023-04-04T09:47:31.687Z,100489.77
2023-04-04T09:50:01.594Z,100487.44
2023-04-04T09:52:36.753Z,100493.79
2023-04-04T09:55:08.149Z,100483.98
2023-04-04T09:57:39.545Z,100488.11
2023-04-04T10:00:09.597Z,100485.77
2023-04-04T10:02:43.042Z,100489.53
2023-04-04T10:05:12.436Z,100481.77
2023-04-04T10:07:43.136Z,100484.13
2023-04-04T10:10:19.870Z,100487.00
2023-04-04T10:13:03.751Z,100485.84
2023-04-04T10:15:38.765Z,100485.36
2023-04-04T10:18:08.462Z,100475.72
2023-04-04T10:20:37.869Z,100477.61
2023-04-04T10:23:07.554Z,100475.43
2023-04-04T10:25:37.080Z,100479.55
2023-04-04T10:28:07.918Z,100474.48
2023-04-04T10:30:55.756Z,100479.95
2023-04-04T10:33:48.497Z,100473.38
2023-04-04T10:36:27.370Z,100471.11
2023-04-04T10:39:27.727Z,100461.78
2023-04-04T10:41:57.171Z,100464.73
2023-04-04T10:44:34.867Z,100459.18
2023-04-04T10:47:17.549Z,100461.79
2023-04-04T10:49:48.189Z,100476.94
2023-04-04T10:52:24.270Z,100472.88
2023-04-04T10:54:56.899Z,100478.14
2023-04-04T10:57:25.996Z,100481.55
2023-04-04T11:00:10.261Z,100481.71
2023-04-04T11:03:00.185Z,100480.17
2023-04-04T11:05:50.984Z,100480.17
2023-04-04T11:08:25.332Z,100473.05
2023-04-04T11:10:55.133Z,100477.14
2023-04-04T11:13:39.971Z,100479.03
2023-04-04T11:16:15.596Z,100471.06
2023-04-04T11:18:47.646Z,100469.04
2023-04-04T11:21:19.625Z,100467.01
2023-04-04T11:23:53.840Z,100472.10
2023-04-04T11:26:34.270Z,100477.03
2023-04-04T11:29:04.414Z,100473.30
2023-04-04T11:31:40.657Z,100473.80
2023-04-04T11:34:12.637Z,100477.55
2023-04-04T11:36:47.232Z,100481.27
2023-04-04T11:39:30.860Z,100471.08
2023-04-04T11:42:08.655Z,100476.67
2023-04-04T11:44:45.077Z,100480.08
2023-04-04T11:47:14.177Z,100471.09
2023-04-04T11:49:44.568Z,100467.01
2023-04-04T11:52:16.210Z,100466.20
2023-04-04T11:54:47.453Z,100469.98
2023-04-04T11:57:19.302Z,100472.88
2023-04-04T11:59:49.702Z,100472.37
2023-04-04T12:02:26.641Z,100476.95
2023-04-04T12:04:56.556Z,100478.48
2023-04-04T12:07:28.427Z,100478.15
2023-04-04T12:09:58.554Z,100473.91
2023-04-04T12:12:28.674Z,100482.23
2023-04-04T12:15:06.772Z,100474.93
2023-04-04T12:17:34.416Z,100472.89
2023-04-04T12:20:04.890Z,100471.70
2023-04-04T12:22:41.770Z,100458.62
2023-04-04T12:25:11.551Z,100464.06
2023-04-04T12:27:44.355Z,100459.46
2023-04-04T12:30:15.912Z,100466.27
2023-04-04T12:32:49.169Z,100463.72
2023-04-04T12:35:18.551Z,100459.12
2023-04-04T12:38:11.051Z,100457.27
2023-04-04T12:40:40.673Z,100459.30
2023-04-04T12:43:10.164Z,100462.69
2023-04-04T12:45:41.537Z,100463.37
2023-04-04T12:48:16.788Z,100463.02
2023-04-04T12:50:55.566Z,100465.74
2023-04-04T12:53:29.822Z,100465.06
2023-04-04T12:56:04.888Z,100459.28
2023-04-04T12:58:37.535Z,100446.52
2023-04-04T13:01:08.533Z,100451.28
2023-04-04T13:03:39.089Z,100439.91
2023-04-04T13:06:17.374Z,100445.34
2023-04-04T13:08:55.509Z,100448.06
2023-04-04T13:11:27.464Z,100450.11
2023-04-04T13:14:03.184Z,100446.38
2023-04-04T13:16:38.479Z,100442.47
2023-04-04T13:19:09.679Z,100446.39
2023-04-04T13:21:40.626Z,100445.20
2023-04-04T13:24:10.364Z,100441.97
2023-04-04T13:26:39.153Z,100445.03
2023-04-04T13:29:08.300Z,100440.45
2023-04-04T13:31:38.094Z,100438.92
2023-04-04T13:34:07.375Z,100428.38
2023-04-04T13:36:36.415Z,100432.46
2023-04-04T13:39:05.377Z,100428.22
2023-04-04T13:41:34.357Z,100423.63
2023-04-04T13:44:04.386Z,100424.81
2023-04-04T13:46:33.327Z,100425.84
2023-04-04T13:49:04.120Z,100423.96
2023-04-04T13:51:33.619Z,100424.30
2023-04-04T13:54:02.804Z,100420.56
2023-04-04T13:56:32.871Z,100424.98
2023-04-04T13:59:04.093Z,100428.72
2023-04-04T14:01:34.100Z,100426.68
2023-04-04T14:04:13.198Z,100427.70
2023-04-04T14:06:35.086Z,100414.61
2023-04-04T14:09:05.067Z,100419.54
2023-04-04T14:11:35.918Z,100423.96
2023-04-04T14:14:04.930Z,100416.65
2023-04-04T14:16:34.678Z,100417.84
2023-04-04T14:19:04.844Z,100408.48
2023-04-04T14:21:34.160Z,100406.95
2023-04-04T14:24:03.683Z,100415.12
2023-04-04T14:26:35.149Z,100408.31
2023-04-04T14:29:04.715Z,100406.95
2023-04-04T14:31:34.942Z,100405.25
2023-04-04T14:34:05.678Z,100398.11
2023-04-04T14:36:35.809Z,100400.49
2023-04-04T14:39:05.297Z,100401.69
2023-04-04T14:41:34.912Z,100405.25
2023-04-04T14:44:04.018Z,100401.00
2023-04-04T14:46:33.877Z,100404.23
2023-04-04T14:49:04.663Z,100401.50
2023-04-04T14:51:33.774Z,100403.55
2023-04-04T14:54:02.813Z,100404.22
2023-04-04T14:56:32.375Z,100407.63
2023-04-04T14:59:02.717Z,100406.09
2023-04-04T15:01:32.292Z,100407.12
2023-04-04T15:04:01.842Z,100407.63
2023-04-04T15:06:35.797Z,100406.43
2023-04-04T15:09:06.140Z,100404.39
2023-04-04T15:11:36.518Z,100403.54
2023-04-04T15:14:06.393Z,100411.02
2023-04-04T15:16:35.729Z,100409.15
2023-04-04T15:19:05.051Z,100409.83
2023-04-04T15:21:35.429Z,100408.64
2023-04-04T15:24:04.945Z,100419.01
2023-04-04T15:26:35.621Z,100412.89
2023-04-04T15:29:04.771Z,100418.84
2023-04-04T15:31:34.698Z,100417.47
2023-04-04T15:34:05.112Z,100414.76
2023-04-04T15:36:36.041Z,100412.71
2023-04-04T15:39:05.880Z,100411.69
2023-04-04T15:41:36.472Z,100411.69
2023-04-04T15:44:05.373Z,100407.95
2023-04-04T15:46:34.475Z,100407.27
2023-04-04T15:49:04.386Z,100409.66
2023-04-04T15:51:33.998Z,100405.74
2023-04-04T15:54:04.352Z,100404.55
2023-04-04T15:56:33.932Z,100402.00
2023-04-04T15:59:02.783Z,100403.02
2023-04-04T16:01:36.509Z,100402.35
2023-04-04T16:04:06.949Z,100393.17
2023-04-04T16:06:37.760Z,100396.75
2023-04-04T16:09:09.850Z,100393.34
2023-04-04T16:11:40.325Z,100380.42
2023-04-04T16:14:10.738Z,100380.92
2023-04-04T16:16:41.482Z,100373.95
2023-04-04T16:19:12.618Z,100378.55
2023-04-04T16:21:41.613Z,100375.83
2023-04-04T16:24:15.849Z,100374.26
2023-04-04T16:26:49.906Z,100375.92
2023-04-04T16:29:18.721Z,100365.38
2023-04-04T16:31:49.130Z,100362.33
2023-04-04T16:34:18.237Z,100363.17
2023-04-04T16:36:48.727Z,100362.83
2023-04-04T16:39:18.889Z,100360.62
2023-04-04T16:41:49.861Z,100360.28
2023-04-04T16:44:22.671Z,100354.16
2023-04-04T16:46:52.320Z,100361.98
2023-04-04T16:49:21.240Z,100357.05
2023-04-04T16:51:51.690Z,100352.80
2023-04-04T16:54:21.762Z,100353.30
2023-04-04T16:56:52.606Z,100349.23
2023-04-04T16:59:22.657Z,100350.25
2023-04-04T17:01:52.256Z,100348.38
2023-04-04T17:04:21.515Z,100343.96
2023-04-04T17:06:51.160Z,100344.98
2023-04-04T17:09:20.484Z,100344.12
2023-04-04T17:11:51.689Z,100339.70
2023-04-04T17:14:22.041Z,100339.20
2023-04-04T17:16:52.409Z,100339.88
2023-04-04T17:19:21.467Z,100330.36
2023-04-04T17:21:51.157Z,100329.17
2023-04-04T17:24:19.820Z,100332.56
2023-04-04T17:26:49.146Z,100340.71
2023-04-04T17:29:19.809Z,100334.25
2023-04-04T17:31:50.759Z,100332.55
2023-04-04T17:34:20.505Z,100334.08
2023-04-04T17:36:49.423Z,100332.03
2023-04-04T17:39:18.346Z,100326.59
2023-04-04T17:41:52.936Z,100330.33
2023-04-04T17:44:22.586Z,100332.88
2023-04-04T17:46:51.520Z,100336.27
2023-04-04T17:49:20.580Z,100346.63
2023-04-04T17:51:51.304Z,100340.68
2023-04-04T17:54:21.288Z,100345.42
2023-04-04T17:56:50.480Z,100348.31
2023-04-04T17:59:19.548Z,100337.95
2023-04-04T18:01:51.825Z,100335.74
2023-04-04T18:04:22.021Z,100334.20
2023-04-04T18:06:52.577Z,100338.27
2023-04-04T18:09:23.548Z,100339.45
2023-04-04T18:11:54.914Z,100332.31
2023-04-04T18:14:24.044Z,100331.47
2023-04-04T18:16:52.942Z,100329.27
2023-04-04T18:19:22.597Z,100331.13
2023-04-04T18:21:53.584Z,100328.92
2023-04-04T18:24:22.864Z,100323.47
2023-04-04T18:26:53.563Z,100317.31
2023-04-04T18:29:25.592Z,100319.34
2023-04-04T18:31:54.609Z,100324.58
2023-04-04T18:34:23.501Z,100322.36
2023-04-04T18:36:52.965Z,100326.43
2023-04-04T18:39:23.352Z,100330.32
2023-04-04T18:41:53.420Z,100335.59
2023-04-04T18:44:23.963Z,100339.65
2023-04-04T18:46:53.108Z,100347.09
2023-04-04T18:49:22.082Z,100350.13
2023-04-04T18:51:51.300Z,100356.75
2023-04-04T18:54:22.146Z,100363.38
2023-04-04T18:56:51.288Z,100371.34
2023-04-04T18:59:22.288Z,100372.86
2023-04-04T19:01:56.162Z,100373.20
2023-04-04T19:04:26.358Z,100369.81
2023-04-04T19:06:55.932Z,100368.64
2023-04-04T19:09:25.221Z,100367.28
2023-04-04T19:11:53.786Z,100356.93
2023-04-04T19:14:22.406Z,100357.96
2023-04-04T19:16:54.946Z,100349.66
2023-04-04T19:19:24.481Z,100339.97
2023-04-04T19:21:53.275Z,100339.80
2023-04-04T19:24:21.988Z,100334.34
2023-04-04T19:26:51.458Z,100332.46
2023-04-04T19:29:21.812Z,100334.33
2023-04-04T19:31:54.643Z,100331.11
2023-04-04T19:34:23.392Z,100334.83
2023-04-04T19:36:53.572Z,100332.12
2023-04-04T19:39:22.328Z,100336.53
2023-04-04T19:41:51.362Z,100338.91
2023-04-04T19:44:20.771Z,100337.87
2023-04-04T19:46:52.714Z,100345.33
2023-04-04T19:49:24.648Z,100344.82
2023-04-04T19:51:58.216Z,100347.53
2023-04-04T19:54:41.003Z,100348.89
2023-04-04T19:57:19.913Z,100359.59
2023-04-04T20:00:10.677Z,100363.66
2023-04-04T20:02:51.225Z,100368.92
2023-04-04T20:05:38.046Z,100372.14
2023-04-04T20:08:06.828Z,100373.84
2023-04-04T20:10:39.545Z,100378.93
2023-04-04T20:13:10.653Z,100374.86
2023-04-04T20:15:51.620Z,100381.30
2023-04-04T20:18:25.019Z,100380.45
2023-04-04T20:21:05.891Z,100381.97
2023-04-04T20:24:07.856Z,100370.26
2023-04-04T20:26:45.865Z,100372.81
2023-04-04T20:29:16.401Z,100363.98
2023-04-04T20:31:50.861Z,100362.28
2023-04-04T20:34:46.467Z,100359.37
2023-04-04T20:37:23.138Z,100361.91
2023-04-04T20:40:14.462Z,100349.01
2023-04-04T20:42:43.980Z,100340.17
2023-04-04T20:45:29.888Z,100343.91
2023-04-04T20:48:06.884Z,100342.20
2023-04-04T20:50:42.503Z,100342.70
2023-04-04T20:53:16.379Z,100335.92
2023-04-04T20:55:47.113Z,100333.72
2023-04-04T20:58:28.455Z,100326.59
2023-04-04T21:00:59.118Z,100321.32
2023-04-04T21:03:35.419Z,100320.12
2023-04-04T21:06:11.174Z,100316.56
2023-04-04T21:08:49.830Z,100310.63
2023-04-04T21:11:32.724Z,100313.00
2023-04-04T21:14:03.212Z,100303.50
2023-04-04T21:16:39.799Z,100296.55
2023-04-04T21:19:09.549Z,100303.18
2023-04-04T21:21:39.318Z,100301.30
2023-04-04T21:24:10.156Z,100304.52
2023-04-04T21:26:41.697Z,100299.09
2023-04-04T21:29:25.603Z,100298.02
2023-04-04T21:31:55.650Z,100294.63
2023-04-04T21:34:26.404Z,100296.31
2023-04-04T21:36:58.857Z,100299.88
2023-04-04T21:39:31.065Z,100289.88
2023-04-04T21:42:06.037Z,100284.27
2023-04-04T21:44:35.077Z,100288.84
2023-04-04T21:47:04.377Z,100283.08
2023-04-04T21:49:33.592Z,100283.74
2023-04-04T21:52:02.587Z,100278.16
2023-04-04T21:54:31.874Z,100271.72
2023-04-04T21:57:04.003Z,100270.36
2023-04-04T21:59:33.890Z,100264.61
2023-04-04T22:02:03.396Z,100254.59
2023-04-04T22:04:34.590Z,100249.14
2023-04-04T22:07:04.147Z,100253.88
2023-04-04T22:09:33.944Z,100255.08
2023-04-04T22:12:05.511Z,100254.57
2023-04-04T22:14:35.492Z,100260.00
2023-04-04T22:17:05.971Z,100259.31
2023-04-04T22:19:38.033Z,100257.42
2023-04-04T22:22:06.994Z,100266.58
2023-04-04T22:24:37.011Z,100251.81
2023-04-04T22:27:07.347Z,100257.22
2023-04-04T22:29:37.266Z,100256.88
2023-04-04T22:32:06.706Z,100270.46
2023-04-04T22:34:37.017Z,100270.97
2023-04-04T22:37:07.468Z,100265.38
2023-04-04T22:39:37.514Z,100277.23
2023-04-04T22:42:06.739Z,100280.80
2023-04-04T22:44:35.792Z,100270.80
2023-04-04T22:47:07.803Z,100270.12
2023-04-04T22:49:39.290Z,100265.03
2023-04-04T22:52:10.106Z,100249.77
2023-04-04T22:54:40.717Z,100247.70
2023-04-04T22:57:10.022Z,100250.07
2023-04-04T22:59:40.362Z,100249.56
2023-04-04T23:02:09.952Z,100248.05
2023-04-04T23:04:40.247Z,100243.13
2023-04-04T23:07:09.532Z,100246.00
2023-04-04T23:12:27.350Z,100229.72
2023-04-04T23:15:01.409Z,100224.95
2023-04-04T23:17:33.180Z,100229.02
2023-04-04T23:20:04.523Z,100222.91
2023-04-04T23:22:34.779Z,100220.86
2023-04-04T23:25:06.846Z,100225.28
2023-04-04T23:27:37.397Z,100225.12
2023-04-04T23:30:09.880Z,100253.43
2023-04-04T23:32:42.122Z,100261.54
2023-04-04T23:35:11.646Z,100246.28
2023-04-04T23:37:40.769Z,100234.08
2023-04-04T23:40:11.766Z,100219.51
2023-04-04T23:42:41.648Z,100223.25
2023-04-04T23:45:12.458Z,100223.08
2023-04-04T23:47:43.074Z,100226.98
2023-04-04T23:50:13.045Z,100228.34
2023-04-04T23:52:43.607Z,100218.16
2023-04-04T23:55:13.494Z,100219.33
2023-04-04T23:57:43.548Z,100217.79
